sensor_id;sensor_type;location;lat;lon;timestamp;pressure;altitude;pressure_sealevel;temperature;humidity
29169;BME280;16219;42.864;23.360;2022-11-20T00:00:11;95153.50;;;16.10;100.00
29169;BME280;16219;42.864;23.360;2022-11-20T00:02:38;95143.41;;;15.92;100.00
29169;BME280;16219;42.864;23.360;2022-11-20T00:05:06;95162.50;;;15.98;100.00
29169;BME280;16219;42.864;23.360;2022-11-20T00:07:34;95155.47;;;16.13;100.00
29169;BME280;16219;42.864;23.360;2022-11-20T00:10:03;95170.03;;;16.53;100.00
29169;BME280;16219;42.864;23.360;2022-11-20T00:12:31;95172.28;;;16.50;100.00
29169;BME280;16219;42.864;23.360;2022-11-20T00:14:58;95171.75;;;16.38;100.00
29169;BME280;16219;42.864;23.360;2022-11-20T00:17:25;95170.50;;;16.28;100.00
29169;BME280;16219;42.864;23.360;2022-11-20T00:19:52;95152.91;;;16.20;100.00
29169;BME280;16219;42.864;23.360;2022-11-20T00:22:19;95167.44;;;16.60;100.00
29169;BME280;16219;42.864;23.360;2022-11-20T00:24:47;95150.22;;;16.50;100.00
29169;BME280;16219;42.864;23.360;2022-11-20T00:27:14;95125.06;;;16.47;100.00
29169;BME280;16219;42.864;23.360;2022-11-20T00:29:41;95151.81;;;16.58;100.00
29169;BME280;16219;42.864;23.360;2022-11-20T00:32:08;95152.13;;;16.49;100.00
29169;BME280;16219;42.864;23.360;2022-11-20T00:34:35;95140.97;;;16.40;100.00
29169;BME280;16219;42.864;23.360;2022-11-20T00:37:02;95162.47;;;16.58;100.00
29169;BME280;16219;42.864;23.360;2022-11-20T00:39:29;95163.63;;;16.61;100.00
29169;BME280;16219;42.864;23.360;2022-11-20T00:41:58;95166.84;;;16.73;100.00
29169;BME280;16219;42.864;23.360;2022-11-20T00:44:25;95167.47;;;16.97;100.00
29169;BME280;16219;42.864;23.360;2022-11-20T00:46:52;95149.97;;;16.96;100.00
29169;BME280;16219;42.864;23.360;2022-11-20T00:49:19;95159.47;;;16.97;100.00
29169;BME280;16219;42.864;23.360;2022-11-20T00:51:46;95147.59;;;16.87;100.00
29169;BME280;16219;42.864;23.360;2022-11-20T00:54:13;95160.75;;;16.73;100.00
29169;BME280;16219;42.864;23.360;2022-11-20T00:56:40;95173.84;;;16.55;100.00
29169;BME280;16219;42.864;23.360;2022-11-20T00:59:09;95173.13;;;16.58;100.00
29169;BME280;16219;42.864;23.360;2022-11-20T01:01:37;95167.44;;;16.60;100.00
29169;BME280;16219;42.864;23.360;2022-11-20T01:04:04;95167.19;;;16.72;100.00
29169;BME280;16219;42.864;23.360;2022-11-20T01:06:32;95175.63;;;16.74;100.00
29169;BME280;16219;42.864;23.360;2022-11-20T01:09:01;95181.63;;;16.71;100.00
29169;BME280;16219;42.864;23.360;2022-11-20T01:11:30;95175.19;;;16.72;100.00
29169;BME280;16219;42.864;23.360;2022-11-20T01:13:59;95169.75;;;16.65;100.00
29169;BME280;16219;42.864;23.360;2022-11-20T01:16:29;95163.38;;;16.69;100.00
29169;BME280;16219;42.864;23.360;2022-11-20T01:18:58;95164.53;;;16.72;100.00
29169;BME280;16219;42.864;23.360;2022-11-20T01:21:27;95162.66;;;16.72;100.00
29169;BME280;16219;42.864;23.360;2022-11-20T01:23:55;95154.19;;;16.67;100.00
29169;BME280;16219;42.864;23.360;2022-11-20T01:26:25;95152.75;;;16.73;100.00
29169;BME280;16219;42.864;23.360;2022-11-20T01:28:53;95154.41;;;16.85;100.00
29169;BME280;16219;42.864;23.360;2022-11-20T01:31:23;95147.56;;;16.84;100.00
29169;BME280;16219;42.864;23.360;2022-11-20T01:33:53;95136.09;;;16.80;100.00
29169;BME280;16219;42.864;23.360;2022-11-20T01:36:22;95131.88;;;16.75;100.00
29169;BME280;16219;42.864;23.360;2022-11-20T01:38:51;95127.59;;;16.70;100.00
29169;BME280;16219;42.864;23.360;2022-11-20T01:41:18;95112.41;;;16.71;100.00
29169;BME280;16219;42.864;23.360;2022-11-20T01:44:00;95113.34;;;16.89;100.00
29169;BME280;16219;42.864;23.360;2022-11-20T01:46:27;95116.09;;;16.96;100.00
29169;BME280;16219;42.864;23.360;2022-11-20T01:48:58;95119.56;;;17.01;100.00
29169;BME280;16219;42.864;23.360;2022-11-20T01:51:30;95124.97;;;17.11;100.00
29169;BME280;16219;42.864;23.360;2022-11-20T01:54:02;95109.72;;;17.12;100.00
29169;BME280;16219;42.864;23.360;2022-11-20T01:56:32;95110.84;;;17.07;100.00
29169;BME280;16219;42.864;23.360;2022-11-20T01:59:02;95098.56;;;16.95;100.00
29169;BME280;16219;42.864;23.360;2022-11-20T02:01:31;95126.13;;;17.14;100.00
29169;BME280;16219;42.864;23.360;2022-11-20T02:04:00;95114.22;;;17.01;100.00
29169;BME280;16219;42.864;23.360;2022-11-20T02:06:29;95119.66;;;17.15;100.00
29169;BME280;16219;42.864;23.360;2022-11-20T02:08:57;95101.06;;;17.22;100.00
29169;BME280;16219;42.864;23.360;2022-11-20T02:11:24;95107.97;;;17.30;100.00
29169;BME280;16219;42.864;23.360;2022-11-20T02:13:51;95117.88;;;17.30;100.00
29169;BME280;16219;42.864;23.360;2022-11-20T02:16:21;95113.69;;;17.32;100.00
29169;BME280;16219;42.864;23.360;2022-11-20T02:18:50;95108.81;;;17.38;100.00
29169;BME280;16219;42.864;23.360;2022-11-20T02:21:39;95109.91;;;17.33;100.00
29169;BME280;16219;42.864;23.360;2022-11-20T02:24:13;95095.44;;;17.34;100.00
29169;BME280;16219;42.864;23.360;2022-11-20T02:26:42;95105.81;;;17.46;100.00
29169;BME280;16219;42.864;23.360;2022-11-20T02:29:11;95113.72;;;17.36;100.00
29169;BME280;16219;42.864;23.360;2022-11-20T02:31:41;95106.16;;;17.45;100.00
29169;BME280;16219;42.864;23.360;2022-11-20T02:34:09;95114.56;;;17.43;100.00
29169;BME280;16219;42.864;23.360;2022-11-20T02:36:39;95117.19;;;17.40;100.00
29169;BME280;16219;42.864;23.360;2022-11-20T02:39:10;95125.97;;;17.44;100.00
29169;BME280;16219;42.864;23.360;2022-11-20T02:41:38;95115.66;;;17.39;100.00
29169;BME280;16219;42.864;23.360;2022-11-20T02:44:05;95132.88;;;17.48;100.00
29169;BME280;16219;42.864;23.360;2022-11-20T02:46:32;95151.22;;;17.57;100.00
29169;BME280;16219;42.864;23.360;2022-11-20T02:49:01;95139.00;;;17.53;100.00
29169;BME280;16219;42.864;23.360;2022-11-20T02:51:28;95145.16;;;17.60;100.00
29169;BME280;16219;42.864;23.360;2022-11-20T02:53:55;95140.59;;;17.64;100.00
29169;BME280;16219;42.864;23.360;2022-11-20T02:56:24;95141.00;;;17.66;100.00
29169;BME280;16219;42.864;23.360;2022-11-20T02:58:51;95138.34;;;17.70;100.00
29169;BME280;16219;42.864;23.360;2022-11-20T03:01:18;95146.44;;;17.77;100.00
29169;BME280;16219;42.864;23.360;2022-11-20T03:03:45;95151.38;;;17.75;100.00
29169;BME280;16219;42.864;23.360;2022-11-20T03:06:16;95166.56;;;17.67;100.00
29169;BME280;16219;42.864;23.360;2022-11-20T03:08:44;95173.75;;;17.63;100.00
29169;BME280;16219;42.864;23.360;2022-11-20T03:11:11;95179.00;;;17.53;100.00
29169;BME280;16219;42.864;23.360;2022-11-20T03:13:39;95186.25;;;17.52;100.00
29169;BME280;16219;42.864;23.360;2022-11-20T03:16:08;95179.28;;;17.40;100.00
29169;BME280;16219;42.864;23.360;2022-11-20T03:18:36;95186.94;;;17.42;100.00
29169;BME280;16219;42.864;23.360;2022-11-20T03:21:03;95177.06;;;17.49;100.00
29169;BME280;16219;42.864;23.360;2022-11-20T03:23:31;95197.66;;;17.53;100.00
29169;BME280;16219;42.864;23.360;2022-11-20T03:26:09;95175.88;;;17.43;100.00
29169;BME280;16219;42.864;23.360;2022-11-20T03:28:36;95201.53;;;17.62;100.00
29169;BME280;16219;42.864;23.360;2022-11-20T03:31:10;95201.53;;;17.59;100.00
29169;BME280;16219;42.864;23.360;2022-11-20T03:33:38;95188.41;;;17.39;100.00
29169;BME280;16219;42.864;23.360;2022-11-20T03:36:07;95209.47;;;17.52;100.00
29169;BME280;16219;42.864;23.360;2022-11-20T03:38:35;95204.16;;;17.52;100.00
29169;BME280;16219;42.864;23.360;2022-11-20T03:41:03;95212.84;;;17.45;100.00
29169;BME280;16219;42.864;23.360;2022-11-20T03:43:31;95220.03;;;17.41;100.00
29169;BME280;16219;42.864;23.360;2022-11-20T03:45:58;95210.41;;;17.26;100.00
29169;BME280;16219;42.864;23.360;2022-11-20T03:48:27;95182.56;;;17.23;100.00
29169;BME280;16219;42.864;23.360;2022-11-20T03:51:07;95205.09;;;17.29;100.00
29169;BME280;16219;42.864;23.360;2022-11-20T03:53:34;95191.44;;;17.34;100.00
29169;BME280;16219;42.864;23.360;2022-11-20T03:56:02;95192.16;;;17.31;100.00
29169;BME280;16219;42.864;23.360;2022-11-20T03:58:29;95183.34;;;17.27;100.00
29169;BME280;16219;42.864;23.360;2022-11-20T04:00:56;95163.91;;;17.23;100.00
29169;BME280;16219;42.864;23.360;2022-11-20T04:03:23;95171.97;;;17.30;100.00
29169;BME280;16219;42.864;23.360;2022-11-20T04:05:52;95166.84;;;17.11;100.00
29169;BME280;16219;42.864;23.360;2022-11-20T04:08:19;95168.44;;;17.19;100.00
29169;BME280;16219;42.864;23.360;2022-11-20T04:10:46;95174.53;;;17.19;100.00
29169;BME280;16219;42.864;23.360;2022-11-20T04:13:13;95166.88;;;17.14;100.00
29169;BME280;16219;42.864;23.360;2022-11-20T04:15:41;95149.84;;;17.26;100.00
29169;BME280;16219;42.864;23.360;2022-11-20T04:18:08;95133.84;;;17.26;100.00
29169;BME280;16219;42.864;23.360;2022-11-20T04:20:35;95111.44;;;17.34;100.00
29169;BME280;16219;42.864;23.360;2022-11-20T04:23:04;95087.91;;;17.47;100.00
29169;BME280;16219;42.864;23.360;2022-11-20T04:25:31;95109.91;;;17.33;100.00
29169;BME280;16219;42.864;23.360;2022-11-20T04:27:58;95108.78;;;17.34;100.00
29169;BME280;16219;42.864;23.360;2022-11-20T04:30:25;95095.47;;;17.41;100.00
29169;BME280;16219;42.864;23.360;2022-11-20T04:32:52;95103.84;;;17.40;100.00
29169;BME280;16219;42.864;23.360;2022-11-20T04:35:19;95099.28;;;17.40;100.00
29169;BME280;16219;42.864;23.360;2022-11-20T04:37:46;95115.34;;;17.47;100.00
29169;BME280;16219;42.864;23.360;2022-11-20T04:40:14;95119.88;;;17.43;100.00
29169;BME280;16219;42.864;23.360;2022-11-20T04:42:41;95111.94;;;17.51;100.00
29169;BME280;16219;42.864;23.360;2022-11-20T04:45:09;95107.63;;;17.35;100.00
29169;BME280;16219;42.864;23.360;2022-11-20T04:47:36;95112.91;;;17.28;100.00
29169;BME280;16219;42.864;23.360;2022-11-20T04:50:04;95093.28;;;17.51;100.00
29169;BME280;16219;42.864;23.360;2022-11-20T04:52:31;95088.72;;;17.51;100.00
29169;BME280;16219;42.864;23.360;2022-11-20T04:54:58;95090.19;;;17.48;100.00
29169;BME280;16219;42.864;23.360;2022-11-20T04:57:27;95102.47;;;17.60;100.00
29169;BME280;16219;42.864;23.360;2022-11-20T04:59:54;95094.09;;;17.62;100.00
29169;BME280;16219;42.864;23.360;2022-11-20T05:02:21;95094.16;;;17.69;100.00
29169;BME280;16219;42.864;23.360;2022-11-20T05:04:48;95090.66;;;17.61;100.00
29169;BME280;16219;42.864;23.360;2022-11-20T05:07:15;95125.72;;;17.60;100.00
29169;BME280;16219;42.864;23.360;2022-11-20T05:09:42;95104.00;;;17.61;100.00
29169;BME280;16219;42.864;23.360;2022-11-20T05:12:09;95091.06;;;17.67;100.00
29169;BME280;16219;42.864;23.360;2022-11-20T05:14:38;95099.44;;;17.65;100.00
29169;BME280;16219;42.864;23.360;2022-11-20T05:17:05;95097.16;;;17.64;100.00
29169;BME280;16219;42.864;23.360;2022-11-20T05:19:32;95094.84;;;17.62;100.00
29169;BME280;16219;42.864;23.360;2022-11-20T05:21:59;95082.69;;;17.65;100.00
29169;BME280;16219;42.864;23.360;2022-11-20T05:24:26;95086.09;;;17.62;100.00
29169;BME280;16219;42.864;23.360;2022-11-20T05:26:53;95080.28;;;17.45;100.00
29169;BME280;16219;42.864;23.360;2022-11-20T05:29:20;95104.28;;;17.49;100.00
29169;BME280;16219;42.864;23.360;2022-11-20T05:31:49;95109.22;;;17.43;100.00
29169;BME280;16219;42.864;23.360;2022-11-20T05:34:16;95097.88;;;17.57;100.00
29169;BME280;16219;42.864;23.360;2022-11-20T05:36:43;95111.94;;;17.54;100.00
29169;BME280;16219;42.864;23.360;2022-11-20T05:39:10;95109.31;;;17.58;100.00
29169;BME280;16219;42.864;23.360;2022-11-20T05:41:37;95096.75;;;17.62;100.00
29169;BME280;16219;42.864;23.360;2022-11-20T05:44:04;95106.72;;;17.68;100.00
29169;BME280;16219;42.864;23.360;2022-11-20T05:46:31;95093.41;;;17.72;100.00
29169;BME280;16219;42.864;23.360;2022-11-20T05:49:00;95097.28;;;17.78;100.00
29169;BME280;16219;42.864;23.360;2022-11-20T05:51:27;95103.69;;;17.73;100.00
29169;BME280;16219;42.864;23.360;2022-11-20T05:53:56;95100.25;;;17.73;100.00
29169;BME280;16219;42.864;23.360;2022-11-20T05:56:23;95122.69;;;17.65;100.00
29169;BME280;16219;42.864;23.360;2022-11-20T05:58:50;95126.88;;;17.59;100.00
29169;BME280;16219;42.864;23.360;2022-11-20T06:01:18;95142.84;;;17.55;100.00
29169;BME280;16219;42.864;23.360;2022-11-20T06:03:46;95118.09;;;17.62;100.00
29169;BME280;16219;42.864;23.360;2022-11-20T06:06:15;95123.94;;;17.78;100.00
29169;BME280;16219;42.864;23.360;2022-11-20T06:08:43;95147.47;;;17.65;100.00
29169;BME280;16219;42.864;23.360;2022-11-20T06:11:11;95113.53;;;17.62;100.00
29169;BME280;16219;42.864;23.360;2022-11-20T06:13:39;95124.88;;;17.48;100.00
29169;BME280;16219;42.864;23.360;2022-11-20T06:16:06;95148.84;;;17.45;100.00
29169;BME280;16219;42.864;23.360;2022-11-20T06:18:33;95129.81;;;17.46;100.00
29169;BME280;16219;42.864;23.360;2022-11-20T06:21:02;95135.97;;;17.58;100.00
29169;BME280;16219;42.864;23.360;2022-11-20T06:23:33;95127.19;;;17.54;100.00
29169;BME280;16219;42.864;23.360;2022-11-20T06:26:05;95135.66;;;17.63;100.00
29169;BME280;16219;42.864;23.360;2022-11-20T06:28:33;95147.84;;;17.64;100.00
29169;BME280;16219;42.864;23.360;2022-11-20T06:31:00;95144.03;;;17.65;100.00
29169;BME280;16219;42.864;23.360;2022-11-20T06:33:28;95129.94;;;17.64;100.00
29169;BME280;16219;42.864;23.360;2022-11-20T06:35:56;95120.00;;;17.61;100.00
29169;BME280;16219;42.864;23.360;2022-11-20T06:38:24;95129.56;;;17.66;100.00
29169;BME280;16219;42.864;23.360;2022-11-20T06:40:52;95142.88;;;17.62;100.00
29169;BME280;16219;42.864;23.360;2022-11-20T06:43:19;95161.13;;;17.57;100.00
29169;BME280;16219;42.864;23.360;2022-11-20T06:45:51;95142.09;;;17.62;100.00
29169;BME280;16219;42.864;23.360;2022-11-20T06:48:18;95133.03;;;17.73;100.00
29169;BME280;16219;42.864;23.360;2022-11-20T06:50:45;95158.91;;;17.66;100.00
29169;BME280;16219;42.864;23.360;2022-11-20T06:53:12;95164.19;;;17.59;100.00
29169;BME280;16219;42.864;23.360;2022-11-20T06:55:42;95179.78;;;17.57;100.00
29169;BME280;16219;42.864;23.360;2022-11-20T06:58:10;95180.59;;;17.61;100.00
29169;BME280;16219;42.864;23.360;2022-11-20T07:00:37;95179.81;;;17.60;100.00
29169;BME280;16219;42.864;23.360;2022-11-20T07:03:05;95180.25;;;17.66;100.00
29169;BME280;16219;42.864;23.360;2022-11-20T07:05:33;95169.06;;;17.49;100.00
29169;BME280;16219;42.864;23.360;2022-11-20T07:08:00;95168.78;;;17.62;100.00
29169;BME280;16219;42.864;23.360;2022-11-20T07:10:27;95163.41;;;17.55;100.00
29169;BME280;16219;42.864;23.360;2022-11-20T07:12:55;95164.13;;;17.52;100.00
29169;BME280;16219;42.864;23.360;2022-11-20T07:15:24;95174.38;;;17.46;100.00
29169;BME280;16219;42.864;23.360;2022-11-20T07:17:51;95193.81;;;17.46;100.00
29169;BME280;16219;42.864;23.360;2022-11-20T07:20:19;95210.56;;;17.43;100.00
29169;BME280;16219;42.864;23.360;2022-11-20T07:22:46;95202.91;;;17.38;100.00
29169;BME280;16219;42.864;23.360;2022-11-20T07:25:13;95216.56;;;17.33;100.00
29169;BME280;16219;42.864;23.360;2022-11-20T07:27:40;95207.47;;;17.38;100.00
29169;BME280;16219;42.864;23.360;2022-11-20T07:30:08;95207.44;;;17.34;100.00
29169;BME280;16219;42.864;23.360;2022-11-20T07:32:36;95186.47;;;17.36;100.00
29169;BME280;16219;42.864;23.360;2022-11-20T07:35:04;95199.44;;;17.34;100.00
29169;BME280;16219;42.864;23.360;2022-11-20T07:37:34;95223.34;;;17.27;100.00
29169;BME280;16219;42.864;23.360;2022-11-20T07:40:01;95204.31;;;17.25;100.00
29169;BME280;16219;42.864;23.360;2022-11-20T07:42:29;95210.06;;;17.31;100.00
29169;BME280;16219;42.864;23.360;2022-11-20T07:44:56;95207.78;;;17.29;100.00
29169;BME280;16219;42.864;23.360;2022-11-20T07:47:23;95213.03;;;17.22;100.00
29169;BME280;16219;42.864;23.360;2022-11-20T07:49:52;95214.56;;;17.23;100.00
29169;BME280;16219;42.864;23.360;2022-11-20T07:52:19;95207.69;;;17.22;100.00
29169;BME280;16219;42.864;23.360;2022-11-20T07:54:46;95203.47;;;17.17;100.00
29169;BME280;16219;42.864;23.360;2022-11-20T07:57:13;95188.22;;;17.18;100.00
29169;BME280;16219;42.864;23.360;2022-11-20T07:59:40;95207.78;;;17.29;100.00
29169;BME280;16219;42.864;23.360;2022-11-20T08:02:09;95206.56;;;17.23;100.00
29169;BME280;16219;42.864;23.360;2022-11-20T08:04:37;95214.97;;;17.25;100.00
29169;BME280;16219;42.864;23.360;2022-11-20T08:07:05;95203.81;;;17.16;100.00
29169;BME280;16219;42.864;23.360;2022-11-20T08:09:32;95200.72;;;17.10;100.00
29169;BME280;16219;42.864;23.360;2022-11-20T08:12:00;95217.09;;;17.09;100.00
29169;BME280;16219;42.864;23.360;2022-11-20T08:14:44;95213.19;;;17.03;100.00
29169;BME280;16219;42.864;23.360;2022-11-20T08:17:11;95200.25;;;17.01;100.00
29169;BME280;16219;42.864;23.360;2022-11-20T08:19:38;95189.59;;;17.01;100.00
29169;BME280;16219;42.864;23.360;2022-11-20T08:22:07;95183.34;;;16.86;100.00
29169;BME280;16219;42.864;23.360;2022-11-20T08:24:34;95198.69;;;16.96;100.00
29169;BME280;16219;42.864;23.360;2022-11-20T08:27:01;95193.41;;;17.00;100.00
29169;BME280;16219;42.864;23.360;2022-11-20T08:29:28;95197.28;;;17.10;100.00
29169;BME280;16219;42.864;23.360;2022-11-20T08:31:55;95194.19;;;17.04;100.00
29169;BME280;16219;42.864;23.360;2022-11-20T08:34:22;95192.72;;;17.10;100.00
29169;BME280;16219;42.864;23.360;2022-11-20T08:36:49;95195.09;;;17.19;100.00
29169;BME280;16219;42.864;23.360;2022-11-20T08:39:17;95209.94;;;17.20;100.00
29169;BME280;16219;42.864;23.360;2022-11-20T08:41:45;95215.19;;;17.09;100.00
29169;BME280;16219;42.864;23.360;2022-11-20T08:44:12;95213.50;;;16.94;100.00
29169;BME280;16219;42.864;23.360;2022-11-20T08:46:40;95223.69;;;16.85;100.00
29169;BME280;16219;42.864;23.360;2022-11-20T08:49:10;95227.75;;;16.75;100.00
29169;BME280;16219;42.864;23.360;2022-11-20T08:51:38;95219.53;;;16.57;100.00
29169;BME280;16219;42.864;23.360;2022-11-20T08:54:06;95199.63;;;16.47;100.00
29169;BME280;16219;42.864;23.360;2022-11-20T08:56:34;95228.41;;;16.38;100.00
29169;BME280;16219;42.864;23.360;2022-11-20T08:59:02;95229.38;;;16.23;100.00
29169;BME280;16219;42.864;23.360;2022-11-20T09:01:29;95239.97;;;16.19;100.00
29169;BME280;16219;42.864;23.360;2022-11-20T09:03:56;95256.69;;;16.20;100.00
29169;BME280;16219;42.864;23.360;2022-11-20T09:06:25;95257.00;;;16.15;100.00
29169;BME280;16219;42.864;23.360;2022-11-20T09:08:52;95264.00;;;16.00;100.00
29169;BME280;16219;42.864;23.360;2022-11-20T09:11:19;95263.59;;;15.98;100.00
29169;BME280;16219;42.864;23.360;2022-11-20T09:13:48;95269.94;;;15.90;100.00
29169;BME280;16219;42.864;23.360;2022-11-20T09:16:15;95285.22;;;15.96;100.00
29169;BME280;16219;42.864;23.360;2022-11-20T09:18:42;95278.81;;;15.97;100.00
29169;BME280;16219;42.864;23.360;2022-11-20T09:21:11;95284.81;;;15.94;100.00
29169;BME280;16219;42.864;23.360;2022-11-20T09:23:39;95278.06;;;16.00;100.00
29169;BME280;16219;42.864;23.360;2022-11-20T09:26:07;95270.91;;;16.05;100.00
29169;BME280;16219;42.864;23.360;2022-11-20T09:28:35;95260.69;;;16.07;100.00
29169;BME280;16219;42.864;23.360;2022-11-20T09:31:06;95259.16;;;16.06;100.00
29169;BME280;16219;42.864;23.360;2022-11-20T09:33:34;95256.06;;;16.04;100.00
29169;BME280;16219;42.864;23.360;2022-11-20T09:36:02;95233.03;;;15.88;100.00
29169;BME280;16219;42.864;23.360;2022-11-20T09:38:29;95244.56;;;15.96;100.00
29169;BME280;16219;42.864;23.360;2022-11-20T09:40:58;95223.53;;;15.87;100.00
29169;BME280;16219;42.864;23.360;2022-11-20T09:43:37;95232.75;;;15.93;100.00
29169;BME280;16219;42.864;23.360;2022-11-20T09:46:13;95235.03;;;15.95;100.00
29169;BME280;16219;42.864;23.360;2022-11-20T09:48:55;95230.47;;;15.95;100.00
29169;BME280;16219;42.864;23.360;2022-11-20T09:51:36;95226.88;;;15.84;100.00
29169;BME280;16219;42.864;23.360;2022-11-20T09:54:14;95220.47;;;15.85;100.00
29169;BME280;16219;42.864;23.360;2022-11-20T09:56:44;95227.31;;;15.86;100.00
29169;BME280;16219;42.864;23.360;2022-11-20T09:59:23;95219.16;;;15.75;100.00
29169;BME280;16219;42.864;23.360;2022-11-20T10:01:55;95208.50;;;15.72;100.00
29169;BME280;16219;42.864;23.360;2022-11-20T10:04:23;95204.69;;;15.73;100.00
29169;BME280;16219;42.864;23.360;2022-11-20T10:06:55;95197.03;;;15.68;100.00
29169;BME280;16219;42.864;23.360;2022-11-20T10:09:28;95193.63;;;15.67;100.00
29169;BME280;16219;42.864;23.360;2022-11-20T10:12:06;95197.03;;;15.68;100.00
29169;BME280;16219;42.864;23.360;2022-11-20T10:14:49;95190.22;;;15.70;100.00
29169;BME280;16219;42.864;23.360;2022-11-20T10:17:27;95191.09;;;15.78;100.00
29169;BME280;16219;42.864;23.360;2022-11-20T10:20:13;95181.97;;;15.79;100.00
29169;BME280;16219;42.864;23.360;2022-11-20T10:22:56;95172.09;;;15.80;100.00
29169;BME280;16219;42.864;23.360;2022-11-20T10:25:28;95170.63;;;15.82;100.00
29169;BME280;16219;42.864;23.360;2022-11-20T10:28:14;95161.53;;;15.83;100.00
29169;BME280;16219;42.864;23.360;2022-11-20T10:30:46;95172.09;;;15.76;100.00
29169;BME280;16219;42.864;23.360;2022-11-20T10:33:23;95173.88;;;15.68;100.00
29169;BME280;16219;42.864;23.360;2022-11-20T10:35:57;95163.06;;;15.35;100.00
29169;BME280;16219;42.864;23.360;2022-11-20T10:38:33;95155.81;;;15.09;100.00
29169;BME280;16219;42.864;23.360;2022-11-20T10:41:04;95171.63;;;15.02;100.00
29169;BME280;16219;42.864;23.360;2022-11-20T10:43:52;95187.34;;;14.91;100.00
29169;BME280;16219;42.864;23.360;2022-11-20T10:46:22;95193.41;;;14.68;100.00
29169;BME280;16219;42.864;23.360;2022-11-20T10:48:51;95173.59;;;14.46;100.00
29169;BME280;16219;42.864;23.360;2022-11-20T10:51:30;95177.38;;;14.45;100.00
29169;BME280;16219;42.864;23.360;2022-11-20T10:54:04;95162.84;;;14.39;100.00
29169;BME280;16219;42.864;23.360;2022-11-20T10:56:37;95170.94;;;14.27;100.00
29169;BME280;16219;42.864;23.360;2022-11-20T11:02:19;95159.28;;;14.12;100.00
29169;BME280;16219;42.864;23.360;2022-11-20T11:04:50;95158.28;;;14.01;100.00
29169;BME280;16219;42.864;23.360;2022-11-20T11:07:21;95183.75;;;14.06;100.00
29169;BME280;16219;42.864;23.360;2022-11-20T11:09:50;95196.78;;;14.11;100.00
29169;BME280;16219;42.864;23.360;2022-11-20T11:12:19;95208.91;;;14.12;100.00
29169;BME280;16219;42.864;23.360;2022-11-20T11:14:48;95214.41;;;14.03;100.00
29169;BME280;16219;42.864;23.360;2022-11-20T11:17:25;95163.22;;;13.83;100.00
29169;BME280;16219;42.864;23.360;2022-11-20T11:20:14;95168.34;;;13.76;100.00
29169;BME280;16219;42.864;23.360;2022-11-20T11:22:45;95193.59;;;13.70;100.00
29169;BME280;16219;42.864;23.360;2022-11-20T11:25:25;95238.91;;;13.49;100.00
29169;BME280;16219;42.864;23.360;2022-11-20T11:27:54;95220.19;;;13.58;100.00
29169;BME280;16219;42.864;23.360;2022-11-20T11:30:23;95205.66;;;13.67;100.00
29169;BME280;16219;42.864;23.360;2022-11-20T11:32:50;95212.84;;;13.67;100.00
29169;BME280;16219;42.864;23.360;2022-11-20T11:35:38;95216.50;;;13.78;100.00
29169;BME280;16219;42.864;23.360;2022-11-20T11:38:07;95200.34;;;13.67;100.00
29169;BME280;16219;42.864;23.360;2022-11-20T11:40:39;95220.59;;;13.75;100.00
29169;BME280;16219;42.864;23.360;2022-11-20T11:43:17;95230.34;;;13.71;100.00
29169;BME280;16219;42.864;23.360;2022-11-20T11:45:59;95229.59;;;13.71;100.00
29169;BME280;16219;42.864;23.360;2022-11-20T11:48:26;95235.84;;;13.79;100.00
29169;BME280;16219;42.864;23.360;2022-11-20T11:50:55;95238.56;;;13.82;100.00
29169;BME280;16219;42.864;23.360;2022-11-20T11:53:23;95237.44;;;13.83;100.00
29169;BME280;16219;42.864;23.360;2022-11-20T11:55:58;95240.47;;;13.82;100.00
29169;BME280;16219;42.864;23.360;2022-11-20T11:58:43;95250.44;;;13.88;100.00
29169;BME280;16219;42.864;23.360;2022-11-20T12:01:21;95238.97;;;13.84;100.00
29169;BME280;16219;42.864;23.360;2022-11-20T12:03:58;95230.78;;;13.89;100.00
29169;BME280;16219;42.864;23.360;2022-11-20T12:06:28;95236.09;;;13.89;100.00
29169;BME280;16219;42.864;23.360;2022-11-20T12:09:01;95237.88;;;13.85;100.00
29169;BME280;16219;42.864;23.360;2022-11-20T12:11:32;95246.09;;;13.80;100.00
29169;BME280;16219;42.864;23.360;2022-11-20T12:14:08;95246.53;;;13.82;100.00
29169;BME280;16219;42.864;23.360;2022-11-20T12:16:38;95241.03;;;13.91;100.00
29169;BME280;16219;42.864;23.360;2022-11-20T12:19:10;95240.34;;;13.94;100.00
29169;BME280;16219;42.864;23.360;2022-11-20T12:21:50;95246.06;;;13.96;100.00
29169;BME280;16219;42.864;23.360;2022-11-20T12:24:51;95234.03;;;13.83;100.00
29169;BME280;16219;42.864;23.360;2022-11-20T12:27:47;95236.34;;;13.84;100.00
29169;BME280;16219;42.864;23.360;2022-11-20T12:30:19;95246.53;;;13.82;100.00
29169;BME280;16219;42.864;23.360;2022-11-20T12:33:15;95237.53;;;13.87;100.00
29169;BME280;16219;42.864;23.360;2022-11-20T12:36:06;95247.88;;;13.92;100.00
29169;BME280;16219;42.864;23.360;2022-11-20T12:41:46;95246.44;;;13.94;100.00
29169;BME280;16219;42.864;23.360;2022-11-20T12:44:51;95233.94;;;13.95;100.00
29169;BME280;16219;42.864;23.360;2022-11-20T12:47:56;95219.56;;;13.96;100.00
29169;BME280;16219;42.864;23.360;2022-11-20T12:50:36;95209.72;;;13.96;100.00
29169;BME280;16219;42.864;23.360;2022-11-20T12:53:10;95215.47;;;13.83;100.00
29169;BME280;16219;42.864;23.360;2022-11-20T12:55:48;95206.19;;;13.73;100.00
29169;BME280;16219;42.864;23.360;2022-11-20T12:58:24;95203.53;;;13.73;100.00
29169;BME280;16219;42.864;23.360;2022-11-20T13:00:59;95200.78;;;13.69;100.00